Weather at Rotterdam The Hague Airport

Public forecast

Using degrees Celsius for public forecast. Weather courtesy of forecast.io.

Current aviation weather report (METAR) for Rotterdam The Hague Airport

Retrieved 2021/02/27 23:25 UTC (0 seconds ago):

EHRD 272325Z AUTO 06001KT 3400 R06/0275D BR NSC 02/02 Q1040 BECMG 1200 BCFG

Aviation forecast (TAF) for Rotterdam The Hague Airport

Retrieved 2021/02/27 18:27 UTC (5 hours ago):

TAF EHRD 271706Z 2718/2824 VRB03KT CAVOK BECMG 2718/2720 4000 MIFG BECMG 2720/2723 0600 FG VV001 PROB40 TEMPO 2722/2810 0300 BECMG 2810/2813 05008KT 4000 BR BKN005 PROB40 2813/2818 9999 NSW FEW015 PROB40 TEMPO 2822/2824 1500 BKN003